sensor_id;sensor_type;location;lat;lon;timestamp;P1;durP1;ratioP1;P2;durP2;ratioP2
78648;SDS011;67962;47.310;9.642;2023-08-06T00:01:50;2.67;;;1.30;;
78648;SDS011;67962;47.310;9.642;2023-08-06T00:04:16;2.47;;;1.40;;
78648;SDS011;67962;47.310;9.642;2023-08-06T00:06:42;2.30;;;1.20;;
78648;SDS011;67962;47.310;9.642;2023-08-06T00:09:07;4.55;;;1.42;;
78648;SDS011;67962;47.310;9.642;2023-08-06T00:11:33;2.10;;;1.40;;
78648;SDS011;67962;47.310;9.642;2023-08-06T00:13:59;3.83;;;1.50;;
78648;SDS011;67962;47.310;9.642;2023-08-06T00:16:25;2.05;;;1.30;;
78648;SDS011;67962;47.310;9.642;2023-08-06T00:18:50;2.60;;;1.30;;
78648;SDS011;67962;47.310;9.642;2023-08-06T00:21:16;2.00;;;1.45;;
78648;SDS011;67962;47.310;9.642;2023-08-06T00:23:41;2.22;;;1.48;;
78648;SDS011;67962;47.310;9.642;2023-08-06T00:26:07;2.15;;;1.35;;
78648;SDS011;67962;47.310;9.642;2023-08-06T00:28:33;2.80;;;1.70;;
78648;SDS011;67962;47.310;9.642;2023-08-06T00:30:58;2.55;;;1.80;;
78648;SDS011;67962;47.310;9.642;2023-08-06T00:33:24;3.30;;;1.65;;
78648;SDS011;67962;47.310;9.642;2023-08-06T00:35:50;2.10;;;1.52;;
78648;SDS011;67962;47.310;9.642;2023-08-06T00:38:16;2.33;;;1.60;;
78648;SDS011;67962;47.310;9.642;2023-08-06T00:40:42;2.72;;;1.67;;
78648;SDS011;67962;47.310;9.642;2023-08-06T00:43:08;3.75;;;1.90;;
78648;SDS011;67962;47.310;9.642;2023-08-06T00:45:34;5.38;;;1.75;;
78648;SDS011;67962;47.310;9.642;2023-08-06T00:48:04;2.05;;;1.48;;
78648;SDS011;67962;47.310;9.642;2023-08-06T00:50:31;2.47;;;1.60;;
78648;SDS011;67962;47.310;9.642;2023-08-06T00:52:57;1.70;;;1.30;;
78648;SDS011;67962;47.310;9.642;2023-08-06T00:55:24;4.60;;;1.80;;
78648;SDS011;67962;47.310;9.642;2023-08-06T00:57:50;2.35;;;1.70;;
78648;SDS011;67962;47.310;9.642;2023-08-06T01:00:17;2.88;;;1.70;;
78648;SDS011;67962;47.310;9.642;2023-08-06T01:02:44;2.20;;;1.33;;
78648;SDS011;67962;47.310;9.642;2023-08-06T01:05:11;2.75;;;1.50;;
78648;SDS011;67962;47.310;9.642;2023-08-06T01:16:03;2.88;;;1.42;;
78648;SDS011;67962;47.310;9.642;2023-08-06T01:18:30;1.92;;;1.60;;
78648;SDS011;67962;47.310;9.642;2023-08-06T01:20:56;4.38;;;1.40;;
78648;SDS011;67962;47.310;9.642;2023-08-06T01:23:22;3.08;;;1.80;;
78648;SDS011;67962;47.310;9.642;2023-08-06T01:25:58;4.63;;;1.63;;
78648;SDS011;67962;47.310;9.642;2023-08-06T01:28:51;2.60;;;1.73;;
78648;SDS011;67962;47.310;9.642;2023-08-06T01:31:27;3.15;;;1.70;;
78648;SDS011;67962;47.310;9.642;2023-08-06T01:33:56;3.40;;;1.40;;
78648;SDS011;67962;47.310;9.642;2023-08-06T01:36:24;1.77;;;1.25;;
78648;SDS011;67962;47.310;9.642;2023-08-06T01:38:53;2.03;;;1.42;;
78648;SDS011;67962;47.310;9.642;2023-08-06T01:41:19;3.25;;;1.48;;
78648;SDS011;67962;47.310;9.642;2023-08-06T01:43:45;1.95;;;1.30;;
78648;SDS011;67962;47.310;9.642;2023-08-06T01:46:10;1.83;;;1.30;;
78648;SDS011;67962;47.310;9.642;2023-08-06T01:48:36;1.70;;;1.20;;
78648;SDS011;67962;47.310;9.642;2023-08-06T01:51:05;2.30;;;1.20;;
78648;SDS011;67962;47.310;9.642;2023-08-06T01:53:31;2.97;;;1.30;;
78648;SDS011;67962;47.310;9.642;2023-08-06T01:55:57;1.95;;;1.23;;
78648;SDS011;67962;47.310;9.642;2023-08-06T01:58:23;3.03;;;1.30;;
78648;SDS011;67962;47.310;9.642;2023-08-06T02:00:49;1.73;;;1.25;;
78648;SDS011;67962;47.310;9.642;2023-08-06T02:03:14;1.63;;;1.20;;
78648;SDS011;67962;47.310;9.642;2023-08-06T02:05:40;2.22;;;1.38;;
78648;SDS011;67962;47.310;9.642;2023-08-06T02:08:06;5.95;;;1.58;;
78648;SDS011;67962;47.310;9.642;2023-08-06T02:10:32;1.60;;;1.27;;
78648;SDS011;67962;47.310;9.642;2023-08-06T02:12:58;2.35;;;1.55;;
78648;SDS011;67962;47.310;9.642;2023-08-06T02:15:24;1.45;;;1.27;;
78648;SDS011;67962;47.310;9.642;2023-08-06T02:17:50;2.00;;;1.33;;
78648;SDS011;67962;47.310;9.642;2023-08-06T02:20:15;1.33;;;0.98;;
78648;SDS011;67962;47.310;9.642;2023-08-06T02:22:41;2.25;;;1.30;;
78648;SDS011;67962;47.310;9.642;2023-08-06T02:25:07;2.10;;;1.10;;
78648;SDS011;67962;47.310;9.642;2023-08-06T02:27:33;2.10;;;1.40;;
78648;SDS011;67962;47.310;9.642;2023-08-06T02:29:58;4.38;;;1.42;;
78648;SDS011;67962;47.310;9.642;2023-08-06T02:32:24;3.00;;;1.65;;
78648;SDS011;67962;47.310;9.642;2023-08-06T02:34:50;5.88;;;1.50;;
78648;SDS011;67962;47.310;9.642;2023-08-06T02:37:15;2.70;;;1.63;;
78648;SDS011;67962;47.310;9.642;2023-08-06T02:39:41;2.42;;;1.30;;
78648;SDS011;67962;47.310;9.642;2023-08-06T02:42:08;3.38;;;1.30;;
78648;SDS011;67962;47.310;9.642;2023-08-06T02:44:34;2.42;;;1.13;;
78648;SDS011;67962;47.310;9.642;2023-08-06T02:47:00;2.10;;;1.42;;
78648;SDS011;67962;47.310;9.642;2023-08-06T02:49:26;2.25;;;1.50;;
78648;SDS011;67962;47.310;9.642;2023-08-06T02:51:52;2.20;;;1.50;;
78648;SDS011;67962;47.310;9.642;2023-08-06T02:54:18;2.58;;;1.17;;
78648;SDS011;67962;47.310;9.642;2023-08-06T02:56:44;5.47;;;1.35;;
78648;SDS011;67962;47.310;9.642;2023-08-06T02:59:11;1.85;;;1.25;;
78648;SDS011;67962;47.310;9.642;2023-08-06T03:01:36;1.58;;;0.98;;
78648;SDS011;67962;47.310;9.642;2023-08-06T03:04:02;1.50;;;1.13;;
78648;SDS011;67962;47.310;9.642;2023-08-06T03:06:28;2.58;;;1.20;;
78648;SDS011;67962;47.310;9.642;2023-08-06T03:08:54;2.90;;;1.10;;
78648;SDS011;67962;47.310;9.642;2023-08-06T03:11:20;2.78;;;1.23;;
78648;SDS011;67962;47.310;9.642;2023-08-06T03:13:46;1.40;;;1.08;;
78648;SDS011;67962;47.310;9.642;2023-08-06T03:16:12;2.35;;;1.30;;
78648;SDS011;67962;47.310;9.642;2023-08-06T03:18:38;1.77;;;1.27;;
78648;SDS011;67962;47.310;9.642;2023-08-06T03:21:04;1.65;;;1.00;;
78648;SDS011;67962;47.310;9.642;2023-08-06T03:23:30;2.85;;;1.10;;
78648;SDS011;67962;47.310;9.642;2023-08-06T03:25:56;5.70;;;1.13;;
78648;SDS011;67962;47.310;9.642;2023-08-06T03:28:21;1.48;;;1.00;;
78648;SDS011;67962;47.310;9.642;2023-08-06T03:30:47;1.90;;;1.30;;
78648;SDS011;67962;47.310;9.642;2023-08-06T03:33:13;2.67;;;1.20;;
78648;SDS011;67962;47.310;9.642;2023-08-06T03:35:39;2.88;;;1.08;;
78648;SDS011;67962;47.310;9.642;2023-08-06T03:38:05;2.75;;;1.40;;
78648;SDS011;67962;47.310;9.642;2023-08-06T03:40:31;1.40;;;1.00;;
78648;SDS011;67962;47.310;9.642;2023-08-06T03:42:56;1.55;;;1.05;;
78648;SDS011;67962;47.310;9.642;2023-08-06T03:45:22;2.60;;;1.10;;
78648;SDS011;67962;47.310;9.642;2023-08-06T03:47:47;5.00;;;1.20;;
78648;SDS011;67962;47.310;9.642;2023-08-06T03:50:13;2.42;;;1.30;;
78648;SDS011;67962;47.310;9.642;2023-08-06T03:52:39;1.30;;;1.00;;
78648;SDS011;67962;47.310;9.642;2023-08-06T03:55:05;5.63;;;1.20;;
78648;SDS011;67962;47.310;9.642;2023-08-06T03:57:31;1.85;;;1.13;;
78648;SDS011;67962;47.310;9.642;2023-08-06T03:59:56;3.65;;;1.17;;
78648;SDS011;67962;47.310;9.642;2023-08-06T04:02:22;4.20;;;1.25;;
78648;SDS011;67962;47.310;9.642;2023-08-06T04:04:48;2.10;;;1.45;;
78648;SDS011;67962;47.310;9.642;2023-08-06T04:07:14;3.33;;;1.45;;
78648;SDS011;67962;47.310;9.642;2023-08-06T04:09:52;4.72;;;1.58;;
78648;SDS011;67962;47.310;9.642;2023-08-06T04:12:18;3.70;;;1.30;;
78648;SDS011;67962;47.310;9.642;2023-08-06T04:14:44;2.55;;;1.25;;
78648;SDS011;67962;47.310;9.642;2023-08-06T04:17:10;2.65;;;1.45;;
78648;SDS011;67962;47.310;9.642;2023-08-06T04:19:35;5.63;;;1.42;;
78648;SDS011;67962;47.310;9.642;2023-08-06T04:22:01;1.63;;;1.10;;
78648;SDS011;67962;47.310;9.642;2023-08-06T04:24:27;2.40;;;1.38;;
78648;SDS011;67962;47.310;9.642;2023-08-06T04:26:52;2.17;;;1.02;;
78648;SDS011;67962;47.310;9.642;2023-08-06T04:29:18;4.50;;;1.02;;
78648;SDS011;67962;47.310;9.642;2023-08-06T04:31:44;1.40;;;0.90;;
78648;SDS011;67962;47.310;9.642;2023-08-06T04:34:09;1.25;;;0.80;;
78648;SDS011;67962;47.310;9.642;2023-08-06T04:36:35;2.50;;;1.25;;
78648;SDS011;67962;47.310;9.642;2023-08-06T04:39:01;1.80;;;1.00;;
78648;SDS011;67962;47.310;9.642;2023-08-06T04:41:26;4.57;;;1.48;;
78648;SDS011;67962;47.310;9.642;2023-08-06T04:43:52;4.57;;;1.52;;
78648;SDS011;67962;47.310;9.642;2023-08-06T04:46:17;1.80;;;1.00;;
78648;SDS011;67962;47.310;9.642;2023-08-06T04:48:43;1.20;;;0.90;;
78648;SDS011;67962;47.310;9.642;2023-08-06T04:51:09;5.80;;;1.10;;
78648;SDS011;67962;47.310;9.642;2023-08-06T04:53:34;1.35;;;0.95;;
78648;SDS011;67962;47.310;9.642;2023-08-06T04:56:00;5.60;;;1.30;;
78648;SDS011;67962;47.310;9.642;2023-08-06T04:58:26;2.40;;;1.38;;
78648;SDS011;67962;47.310;9.642;2023-08-06T05:00:52;4.25;;;1.27;;
78648;SDS011;67962;47.310;9.642;2023-08-06T05:03:18;2.00;;;1.17;;
78648;SDS011;67962;47.310;9.642;2023-08-06T05:05:45;1.67;;;1.15;;
78648;SDS011;67962;47.310;9.642;2023-08-06T05:08:14;3.00;;;1.15;;
78648;SDS011;67962;47.310;9.642;2023-08-06T05:10:44;2.42;;;1.15;;
78648;SDS011;67962;47.310;9.642;2023-08-06T05:13:10;1.38;;;0.82;;
78648;SDS011;67962;47.310;9.642;2023-08-06T05:15:36;1.38;;;0.85;;
78648;SDS011;67962;47.310;9.642;2023-08-06T05:18:01;3.03;;;1.20;;
78648;SDS011;67962;47.310;9.642;2023-08-06T05:20:27;4.78;;;1.23;;
78648;SDS011;67962;47.310;9.642;2023-08-06T05:22:53;1.27;;;0.82;;
78648;SDS011;67962;47.310;9.642;2023-08-06T05:25:19;1.85;;;1.10;;
78648;SDS011;67962;47.310;9.642;2023-08-06T05:27:45;3.00;;;1.90;;
78648;SDS011;67962;47.310;9.642;2023-08-06T05:30:11;3.20;;;1.10;;
78648;SDS011;67962;47.310;9.642;2023-08-06T05:32:36;2.53;;;1.38;;
78648;SDS011;67962;47.310;9.642;2023-08-06T05:35:02;3.45;;;1.30;;
78648;SDS011;67962;47.310;9.642;2023-08-06T05:37:28;4.22;;;1.38;;
78648;SDS011;67962;47.310;9.642;2023-08-06T05:39:54;1.85;;;0.93;;
78648;SDS011;67962;47.310;9.642;2023-08-06T05:42:20;1.83;;;1.10;;
78648;SDS011;67962;47.310;9.642;2023-08-06T05:44:45;2.08;;;1.40;;
78648;SDS011;67962;47.310;9.642;2023-08-06T05:47:11;5.70;;;1.60;;
78648;SDS011;67962;47.310;9.642;2023-08-06T05:49:37;1.45;;;1.00;;
78648;SDS011;67962;47.310;9.642;2023-08-06T05:52:03;2.38;;;0.98;;
78648;SDS011;67962;47.310;9.642;2023-08-06T05:54:31;1.73;;;1.02;;
78648;SDS011;67962;47.310;9.642;2023-08-06T05:56:57;1.65;;;0.75;;
78648;SDS011;67962;47.310;9.642;2023-08-06T05:59:22;2.50;;;1.02;;
78648;SDS011;67962;47.310;9.642;2023-08-06T06:01:48;5.00;;;1.20;;
78648;SDS011;67962;47.310;9.642;2023-08-06T06:04:14;4.30;;;1.17;;
78648;SDS011;67962;47.310;9.642;2023-08-06T06:06:40;2.03;;;1.00;;
78648;SDS011;67962;47.310;9.642;2023-08-06T06:09:06;3.17;;;1.40;;
78648;SDS011;67962;47.310;9.642;2023-08-06T06:11:32;2.63;;;1.08;;
78648;SDS011;67962;47.310;9.642;2023-08-06T06:13:58;1.83;;;1.10;;
78648;SDS011;67962;47.310;9.642;2023-08-06T06:16:23;5.57;;;1.50;;
78648;SDS011;67962;47.310;9.642;2023-08-06T06:18:49;1.70;;;1.15;;
78648;SDS011;67962;47.310;9.642;2023-08-06T06:21:15;2.95;;;1.60;;
78648;SDS011;67962;47.310;9.642;2023-08-06T06:23:41;1.92;;;1.17;;
78648;SDS011;67962;47.310;9.642;2023-08-06T06:26:06;2.17;;;1.20;;
78648;SDS011;67962;47.310;9.642;2023-08-06T06:28:32;3.45;;;1.60;;
78648;SDS011;67962;47.310;9.642;2023-08-06T06:31:01;2.88;;;1.58;;
78648;SDS011;67962;47.310;9.642;2023-08-06T06:33:27;2.80;;;1.38;;
78648;SDS011;67962;47.310;9.642;2023-08-06T06:35:52;2.03;;;1.27;;
78648;SDS011;67962;47.310;9.642;2023-08-06T06:38:18;4.90;;;1.27;;
78648;SDS011;67962;47.310;9.642;2023-08-06T06:40:46;2.00;;;1.30;;
78648;SDS011;67962;47.310;9.642;2023-08-06T06:43:18;2.78;;;1.13;;
78648;SDS011;67962;47.310;9.642;2023-08-06T06:45:44;1.33;;;0.90;;
78648;SDS011;67962;47.310;9.642;2023-08-06T06:48:10;1.88;;;1.20;;
78648;SDS011;67962;47.310;9.642;2023-08-06T06:50:35;4.00;;;1.35;;
78648;SDS011;67962;47.310;9.642;2023-08-06T06:53:01;1.58;;;1.00;;
78648;SDS011;67962;47.310;9.642;2023-08-06T06:55:27;1.38;;;0.93;;
78648;SDS011;67962;47.310;9.642;2023-08-06T06:57:53;2.72;;;1.10;;
78648;SDS011;67962;47.310;9.642;2023-08-06T07:00:18;1.30;;;0.88;;
78648;SDS011;67962;47.310;9.642;2023-08-06T07:02:44;1.70;;;0.77;;
78648;SDS011;67962;47.310;9.642;2023-08-06T07:05:09;5.10;;;0.77;;
78648;SDS011;67962;47.310;9.642;2023-08-06T07:07:42;0.98;;;0.47;;
78648;SDS011;67962;47.310;9.642;2023-08-06T07:10:09;1.55;;;0.60;;
78648;SDS011;67962;47.310;9.642;2023-08-06T07:12:35;0.45;;;0.40;;
78648;SDS011;67962;47.310;9.642;2023-08-06T07:15:02;3.20;;;0.60;;
78648;SDS011;67962;47.310;9.642;2023-08-06T07:17:31;0.90;;;0.40;;
78648;SDS011;67962;47.310;9.642;2023-08-06T07:19:56;1.02;;;0.38;;
78648;SDS011;67962;47.310;9.642;2023-08-06T07:22:22;0.50;;;0.32;;
78648;SDS011;67962;47.310;9.642;2023-08-06T07:24:48;1.48;;;0.40;;
78648;SDS011;67962;47.310;9.642;2023-08-06T07:27:13;0.70;;;0.32;;
78648;SDS011;67962;47.310;9.642;2023-08-06T07:29:39;0.77;;;0.40;;
78648;SDS011;67962;47.310;9.642;2023-08-06T07:32:06;0.68;;;0.47;;
78648;SDS011;67962;47.310;9.642;2023-08-06T07:34:32;2.08;;;0.50;;
78648;SDS011;67962;47.310;9.642;2023-08-06T07:36:58;2.15;;;0.50;;
78648;SDS011;67962;47.310;9.642;2023-08-06T07:39:23;1.05;;;0.68;;
78648;SDS011;67962;47.310;9.642;2023-08-06T07:41:49;3.47;;;0.60;;
78648;SDS011;67962;47.310;9.642;2023-08-06T07:44:15;0.77;;;0.50;;
78648;SDS011;67962;47.310;9.642;2023-08-06T07:46:41;2.13;;;0.70;;
78648;SDS011;67962;47.310;9.642;2023-08-06T07:49:07;1.38;;;0.73;;
78648;SDS011;67962;47.310;9.642;2023-08-06T07:51:33;2.03;;;0.60;;
78648;SDS011;67962;47.310;9.642;2023-08-06T07:53:59;2.03;;;0.80;;
78648;SDS011;67962;47.310;9.642;2023-08-06T07:56:24;1.15;;;0.43;;
78648;SDS011;67962;47.310;9.642;2023-08-06T07:58:50;20.90;;;11.73;;
78648;SDS011;67962;47.310;9.642;2023-08-06T08:01:16;31.88;;;19.65;;
78648;SDS011;67962;47.310;9.642;2023-08-06T08:03:41;35.75;;;13.63;;
78648;SDS011;67962;47.310;9.642;2023-08-06T08:06:07;4.50;;;2.50;;
78648;SDS011;67962;47.310;9.642;2023-08-06T08:08:33;23.95;;;7.55;;
78648;SDS011;67962;47.310;9.642;2023-08-06T08:11:02;4.07;;;1.63;;
78648;SDS011;67962;47.310;9.642;2023-08-06T08:13:28;11.82;;;4.97;;
78648;SDS011;67962;47.310;9.642;2023-08-06T08:15:57;7.40;;;2.90;;
78648;SDS011;67962;47.310;9.642;2023-08-06T08:18:24;17.85;;;9.23;;
78648;SDS011;67962;47.310;9.642;2023-08-06T08:20:50;26.50;;;14.93;;
78648;SDS011;67962;47.310;9.642;2023-08-06T08:23:15;13.40;;;7.32;;
78648;SDS011;67962;47.310;9.642;2023-08-06T08:25:41;4.57;;;2.38;;
78648;SDS011;67962;47.310;9.642;2023-08-06T08:28:07;2.92;;;1.02;;
78648;SDS011;67962;47.310;9.642;2023-08-06T08:30:33;2.45;;;0.82;;
78648;SDS011;67962;47.310;9.642;2023-08-06T08:32:59;1.83;;;1.40;;
78648;SDS011;67962;47.310;9.642;2023-08-06T08:35:24;1.65;;;0.60;;
78648;SDS011;67962;47.310;9.642;2023-08-06T08:37:50;2.45;;;0.82;;
78648;SDS011;67962;47.310;9.642;2023-08-06T08:40:16;1.02;;;0.50;;
78648;SDS011;67962;47.310;9.642;2023-08-06T08:42:42;0.88;;;0.50;;
78648;SDS011;67962;47.310;9.642;2023-08-06T08:45:12;1.95;;;0.82;;
78648;SDS011;67962;47.310;9.642;2023-08-06T08:47:39;1.40;;;0.60;;
78648;SDS011;67962;47.310;9.642;2023-08-06T08:50:07;2.95;;;0.60;;
78648;SDS011;67962;47.310;9.642;2023-08-06T08:52:35;2.60;;;0.60;;
78648;SDS011;67962;47.310;9.642;2023-08-06T08:55:03;3.55;;;0.60;;
78648;SDS011;67962;47.310;9.642;2023-08-06T08:57:29;1.40;;;0.60;;
78648;SDS011;67962;47.310;9.642;2023-08-06T08:59:55;1.80;;;0.60;;
78648;SDS011;67962;47.310;9.642;2023-08-06T09:02:21;1.58;;;0.43;;
78648;SDS011;67962;47.310;9.642;2023-08-06T09:04:48;3.08;;;0.57;;
78648;SDS011;67962;47.310;9.642;2023-08-06T09:07:16;1.05;;;0.80;;
78648;SDS011;67962;47.310;9.642;2023-08-06T09:09:43;1.52;;;0.40;;
78648;SDS011;67962;47.310;9.642;2023-08-06T09:12:14;4.55;;;0.70;;
78648;SDS011;67962;47.310;9.642;2023-08-06T09:14:41;0.43;;;0.20;;
78648;SDS011;67962;47.310;9.642;2023-08-06T09:17:07;0.60;;;0.30;;
78648;SDS011;67962;47.310;9.642;2023-08-06T09:19:35;1.42;;;0.40;;
78648;SDS011;67962;47.310;9.642;2023-08-06T09:22:01;0.30;;;0.25;;
78648;SDS011;67962;47.310;9.642;2023-08-06T09:24:28;1.17;;;0.30;;
78648;SDS011;67962;47.310;9.642;2023-08-06T09:27:10;2.45;;;0.30;;
78648;SDS011;67962;47.310;9.642;2023-08-06T09:29:42;0.75;;;0.30;;
78648;SDS011;67962;47.310;9.642;2023-08-06T09:32:10;1.15;;;0.45;;
78648;SDS011;67962;47.310;9.642;2023-08-06T09:34:42;4.45;;;0.60;;
78648;SDS011;67962;47.310;9.642;2023-08-06T09:37:09;0.93;;;0.47;;
78648;SDS011;67962;47.310;9.642;2023-08-06T09:39:38;1.95;;;0.60;;
78648;SDS011;67962;47.310;9.642;2023-08-06T09:42:07;1.55;;;0.60;;
78648;SDS011;67962;47.310;9.642;2023-08-06T09:44:33;1.10;;;0.30;;
78648;SDS011;67962;47.310;9.642;2023-08-06T09:47:03;0.77;;;0.30;;
78648;SDS011;67962;47.310;9.642;2023-08-06T09:51:58;2.22;;;0.50;;
78648;SDS011;67962;47.310;9.642;2023-08-06T09:54:25;0.88;;;0.47;;
78648;SDS011;67962;47.310;9.642;2023-08-06T09:56:55;0.63;;;0.30;;
78648;SDS011;67962;47.310;9.642;2023-08-06T09:59:24;0.32;;;0.20;;
78648;SDS011;67962;47.310;9.642;2023-08-06T10:01:51;1.67;;;0.25;;
78648;SDS011;67962;47.310;9.642;2023-08-06T10:04:19;0.30;;;0.25;;
78648;SDS011;67962;47.310;9.642;2023-08-06T10:06:46;0.45;;;0.40;;
78648;SDS011;67962;47.310;9.642;2023-08-06T10:09:13;1.48;;;0.45;;
78648;SDS011;67962;47.310;9.642;2023-08-06T10:11:39;0.90;;;0.20;;
78648;SDS011;67962;47.310;9.642;2023-08-06T10:14:15;2.00;;;0.20;;
78648;SDS011;67962;47.310;9.642;2023-08-06T10:16:44;0.45;;;0.20;;
78648;SDS011;67962;47.310;9.642;2023-08-06T10:19:12;0.98;;;0.30;;
78648;SDS011;67962;47.310;9.642;2023-08-06T10:21:39;0.40;;;0.20;;
78648;SDS011;67962;47.310;9.642;2023-08-06T10:24:07;0.45;;;0.20;;
78648;SDS011;67962;47.310;9.642;2023-08-06T10:26:36;0.50;;;0.30;;
78648;SDS011;67962;47.310;9.642;2023-08-06T10:29:34;1.63;;;0.30;;
78648;SDS011;67962;47.310;9.642;2023-08-06T10:32:04;0.40;;;0.22;;
78648;SDS011;67962;47.310;9.642;2023-08-06T10:37:24;0.45;;;0.13;;
78648;SDS011;67962;47.310;9.642;2023-08-06T10:40:00;0.30;;;0.22;;
78648;SDS011;67962;47.310;9.642;2023-08-06T10:42:29;0.88;;;0.30;;
78648;SDS011;67962;47.310;9.642;2023-08-06T10:47:54;0.30;;;0.20;;
78648;SDS011;67962;47.310;9.642;2023-08-06T10:50:23;0.30;;;0.20;;
78648;SDS011;67962;47.310;9.642;2023-08-06T10:52:49;0.20;;;0.20;;
78648;SDS011;67962;47.310;9.642;2023-08-06T10:55:25;0.32;;;0.20;;
78648;SDS011;67962;47.310;9.642;2023-08-06T10:57:53;0.32;;;0.20;;
78648;SDS011;67962;47.310;9.642;2023-08-06T11:00:20;0.22;;;0.20;;
78648;SDS011;67962;47.310;9.642;2023-08-06T11:02:48;0.70;;;0.30;;
78648;SDS011;67962;47.310;9.642;2023-08-06T11:05:14;0.40;;;0.20;;
78648;SDS011;67962;47.310;9.642;2023-08-06T11:07:41;1.05;;;0.28;;
78648;SDS011;67962;47.310;9.642;2023-08-06T11:10:08;0.93;;;0.20;;
78648;SDS011;67962;47.310;9.642;2023-08-06T11:12:35;0.35;;;0.20;;
78648;SDS011;67962;47.310;9.642;2023-08-06T11:15:02;0.45;;;0.20;;
78648;SDS011;67962;47.310;9.642;2023-08-06T11:17:29;0.35;;;0.20;;
78648;SDS011;67962;47.310;9.642;2023-08-06T11:19:55;0.95;;;0.20;;
78648;SDS011;67962;47.310;9.642;2023-08-06T11:22:23;1.08;;;0.20;;
78648;SDS011;67962;47.310;9.642;2023-08-06T11:24:49;0.30;;;0.30;;
78648;SDS011;67962;47.310;9.642;2023-08-06T11:27:16;0.57;;;0.20;;
78648;SDS011;67962;47.310;9.642;2023-08-06T11:29:43;0.43;;;0.43;;
78648;SDS011;67962;47.310;9.642;2023-08-06T11:32:09;0.10;;;0.10;;
78648;SDS011;67962;47.310;9.642;2023-08-06T11:34:35;0.35;;;0.20;;
78648;SDS011;67962;47.310;9.642;2023-08-06T11:37:05;0.65;;;0.13;;
78648;SDS011;67962;47.310;9.642;2023-08-06T11:39:32;0.10;;;0.10;;
78648;SDS011;67962;47.310;9.642;2023-08-06T11:41:58;0.15;;;0.10;;
78648;SDS011;67962;47.310;9.642;2023-08-06T11:44:29;0.95;;;0.20;;
78648;SDS011;67962;47.310;9.642;2023-08-06T11:47:00;0.30;;;0.25;;
78648;SDS011;67962;47.310;9.642;2023-08-06T11:49:45;1.30;;;0.30;;
78648;SDS011;67962;47.310;9.642;2023-08-06T11:54:45;1.98;;;0.25;;
78648;SDS011;67962;47.310;9.642;2023-08-06T11:57:35;0.57;;;0.30;;
78648;SDS011;67962;47.310;9.642;2023-08-06T12:00:09;0.43;;;0.30;;
78648;SDS011;67962;47.310;9.642;2023-08-06T12:02:38;0.85;;;0.38;;
78648;SDS011;67962;47.310;9.642;2023-08-06T12:05:10;0.68;;;0.20;;
78648;SDS011;67962;47.310;9.642;2023-08-06T12:07:37;0.65;;;0.20;;
78648;SDS011;67962;47.310;9.642;2023-08-06T12:10:04;0.30;;;0.20;;
78648;SDS011;67962;47.310;9.642;2023-08-06T12:12:30;0.47;;;0.20;;
78648;SDS011;67962;47.310;9.642;2023-08-06T12:14:56;0.60;;;0.20;;
78648;SDS011;67962;47.310;9.642;2023-08-06T12:17:22;1.15;;;0.40;;
78648;SDS011;67962;47.310;9.642;2023-08-06T12:19:49;0.60;;;0.30;;
78648;SDS011;67962;47.310;9.642;2023-08-06T12:22:15;0.15;;;0.15;;
78648;SDS011;67962;47.310;9.642;2023-08-06T12:24:44;0.40;;;0.20;;
78648;SDS011;67962;47.310;9.642;2023-08-06T12:27:11;1.55;;;0.30;;
78648;SDS011;67962;47.310;9.642;2023-08-06T12:29:40;0.50;;;0.20;;
78648;SDS011;67962;47.310;9.642;2023-08-06T12:32:07;0.57;;;0.15;;
78648;SDS011;67962;47.310;9.642;2023-08-06T12:34:33;0.25;;;0.15;;
78648;SDS011;67962;47.310;9.642;2023-08-06T12:36:59;0.73;;;0.20;;
78648;SDS011;67962;47.310;9.642;2023-08-06T12:39:25;0.30;;;0.20;;
78648;SDS011;67962;47.310;9.642;2023-08-06T12:41:53;0.47;;;0.20;;
78648;SDS011;67962;47.310;9.642;2023-08-06T12:44:20;0.20;;;0.20;;
78648;SDS011;67962;47.310;9.642;2023-08-06T12:46:46;0.28;;;0.20;;
78648;SDS011;67962;47.310;9.642;2023-08-06T12:49:11;0.10;;;0.10;;
78648;SDS011;67962;47.310;9.642;2023-08-06T12:51:37;0.30;;;0.30;;
78648;SDS011;67962;47.310;9.642;2023-08-06T12:54:03;0.35;;;0.20;;
78648;SDS011;67962;47.310;9.642;2023-08-06T12:56:29;0.28;;;0.20;;
78648;SDS011;67962;47.310;9.642;2023-08-06T12:58:55;0.20;;;0.20;;
78648;SDS011;67962;47.310;9.642;2023-08-06T13:01:20;0.30;;;0.20;;
78648;SDS011;67962;47.310;9.642;2023-08-06T13:03:47;0.15;;;0.13;;
78648;SDS011;67962;47.310;9.642;2023-08-06T13:06:13;0.20;;;0.20;;
78648;SDS011;67962;47.310;9.642;2023-08-06T13:08:39;0.20;;;0.20;;
78648;SDS011;67962;47.310;9.642;2023-08-06T13:11:06;0.30;;;0.20;;
78648;SDS011;67962;47.310;9.642;2023-08-06T13:13:32;0.30;;;0.20;;
78648;SDS011;67962;47.310;9.642;2023-08-06T13:15:58;0.60;;;0.30;;
78648;SDS011;67962;47.310;9.642;2023-08-06T13:18:25;0.22;;;0.22;;
78648;SDS011;67962;47.310;9.642;2023-08-06T13:20:55;0.30;;;0.20;;
78648;SDS011;67962;47.310;9.642;2023-08-06T13:23:21;0.20;;;0.20;;
78648;SDS011;67962;47.310;9.642;2023-08-06T13:25:48;0.30;;;0.20;;
78648;SDS011;67962;47.310;9.642;2023-08-06T13:28:14;0.43;;;0.20;;
78648;SDS011;67962;47.310;9.642;2023-08-06T13:30:40;0.95;;;0.30;;
78648;SDS011;67962;47.310;9.642;2023-08-06T13:33:07;0.85;;;0.20;;
78648;SDS011;67962;47.310;9.642;2023-08-06T13:35:34;0.50;;;0.30;;
78648;SDS011;67962;47.310;9.642;2023-08-06T13:38:01;0.50;;;0.30;;
78648;SDS011;67962;47.310;9.642;2023-08-06T13:40:31;0.57;;;0.25;;
78648;SDS011;67962;47.310;9.642;2023-08-06T13:42:58;1.00;;;0.50;;
78648;SDS011;67962;47.310;9.642;2023-08-06T13:45:25;0.35;;;0.28;;
78648;SDS011;67962;47.310;9.642;2023-08-06T13:47:51;0.30;;;0.30;;
78648;SDS011;67962;47.310;9.642;2023-08-06T13:50:17;0.25;;;0.20;;
78648;SDS011;67962;47.310;9.642;2023-08-06T13:52:45;0.20;;;0.20;;
78648;SDS011;67962;47.310;9.642;2023-08-06T13:55:11;0.50;;;0.10;;
78648;SDS011;67962;47.310;9.642;2023-08-06T13:57:37;0.65;;;0.20;;
78648;SDS011;67962;47.310;9.642;2023-08-06T14:00:04;0.30;;;0.28;;
78648;SDS011;67962;47.310;9.642;2023-08-06T14:02:31;0.32;;;0.20;;
78648;SDS011;67962;47.310;9.642;2023-08-06T14:04:57;0.30;;;0.20;;
78648;SDS011;67962;47.310;9.642;2023-08-06T14:07:24;0.40;;;0.20;;
78648;SDS011;67962;47.310;9.642;2023-08-06T14:09:50;0.40;;;0.20;;
78648;SDS011;67962;47.310;9.642;2023-08-06T14:12:16;0.40;;;0.30;;
78648;SDS011;67962;47.310;9.642;2023-08-06T14:14:43;0.52;;;0.40;;
78648;SDS011;67962;47.310;9.642;2023-08-06T14:17:09;0.20;;;0.20;;
78648;SDS011;67962;47.310;9.642;2023-08-06T14:19:36;0.30;;;0.20;;
78648;SDS011;67962;47.310;9.642;2023-08-06T14:22:02;0.35;;;0.20;;
78648;SDS011;67962;47.310;9.642;2023-08-06T14:24:29;0.20;;;0.20;;
78648;SDS011;67962;47.310;9.642;2023-08-06T14:26:55;0.17;;;0.17;;
78648;SDS011;67962;47.310;9.642;2023-08-06T14:29:22;0.25;;;0.20;;
78648;SDS011;67962;47.310;9.642;2023-08-06T14:31:49;0.40;;;0.30;;
78648;SDS011;67962;47.310;9.642;2023-08-06T14:34:17;0.20;;;0.20;;
78648;SDS011;67962;47.310;9.642;2023-08-06T14:36:44;0.20;;;0.20;;
78648;SDS011;67962;47.310;9.642;2023-08-06T14:39:11;0.45;;;0.20;;
78648;SDS011;67962;47.310;9.642;2023-08-06T14:41:38;0.30;;;0.20;;
78648;SDS011;67962;47.310;9.642;2023-08-06T14:44:05;0.20;;;0.20;;
78648;SDS011;67962;47.310;9.642;2023-08-06T14:46:32;3.65;;;2.15;;
78648;SDS011;67962;47.310;9.642;2023-08-06T14:48:59;0.50;;;0.40;;
78648;SDS011;67962;47.310;9.642;2023-08-06T14:51:25;0.63;;;0.32;;
78648;SDS011;67962;47.310;9.642;2023-08-06T14:53:53;1.30;;;0.63;;
78648;SDS011;67962;47.310;9.642;2023-08-06T14:56:19;0.52;;;0.43;;
78648;SDS011;67962;47.310;9.642;2023-08-06T14:58:45;0.20;;;0.17;;
78648;SDS011;67962;47.310;9.642;2023-08-06T15:01:12;0.20;;;0.20;;
78648;SDS011;67962;47.310;9.642;2023-08-06T15:03:38;0.20;;;0.20;;
78648;SDS011;67962;47.310;9.642;2023-08-06T15:06:07;0.17;;;0.17;;